Time;durP1;ratioP1;P1;durP2;ratioP2;P2;SDS_P1;SDS_P2;PMS_P1;PMS_P2;Temp;Humidity;BMP_temperature;BMP_pressure;BME280_temperature;BME280_humidity;BME280_pressure;Samples;Min_cycle;Max_cycle;Signal;HPM_P1;HPM_P2
2023/06/16 00:00:10;;;;;;;6.07;5.20;;;12.70;99.90;;;;;;5073679;28;20230;-81
2023/06/16 00:02:43;;;;;;;7.37;5.60;;;12.70;99.90;;;;;;5073432;28;20216;-79
2023/06/16 00:05:13;;;;;;;6.20;5.60;;;12.70;99.90;;;;;;5074035;28;20223;-78
2023/06/16 00:07:41;;;;;;;6.43;5.73;;;12.60;99.90;;;;;;5073998;28;20207;-79
2023/06/16 00:10:10;;;;;;;6.37;5.60;;;12.60;99.90;;;;;;5073619;28;20219;-78
2023/06/16 00:12:40;;;;;;;8.23;5.60;;;12.60;99.90;;;;;;5073515;28;20203;-79
2023/06/16 00:15:10;;;;;;;8.93;6.20;;;12.60;99.90;;;;;;5073618;28;20243;-80
2023/06/16 00:17:44;;;;;;;6.33;5.57;;;12.60;99.90;;;;;;5073374;28;20203;-79
2023/06/16 00:20:15;;;;;;;6.00;5.40;;;12.50;99.90;;;;;;5081522;28;20225;-79
2023/06/16 00:22:47;;;;;;;7.20;5.47;;;12.50;99.90;;;;;;5073276;28;20250;-80
2023/06/16 00:25:17;;;;;;;7.13;5.47;;;12.50;99.90;;;;;;5073179;28;20223;-78
2023/06/16 00:27:46;;;;;;;9.23;5.67;;;12.40;99.90;;;;;;5073843;28;20212;-78
2023/06/16 00:30:14;;;;;;;6.93;6.00;;;12.40;99.90;;;;;;5073099;28;20212;-79
2023/06/16 00:32:43;;;;;;;7.43;5.23;;;12.30;99.90;;;;;;5072925;28;20215;-81
2023/06/16 00:35:11;;;;;;;6.63;5.60;;;12.40;99.90;;;;;;5072987;28;20266;-77
2023/06/16 00:37:41;;;;;;;7.10;5.70;;;12.40;99.90;;;;;;5071986;28;20215;-80
2023/06/16 00:40:10;;;;;;;7.57;5.97;;;12.30;99.90;;;;;;5073199;28;20265;-79
2023/06/16 00:42:39;;;;;;;6.83;5.23;;;12.30;99.90;;;;;;5072592;28;20217;-80
2023/06/16 00:45:08;;;;;;;6.70;5.70;;;12.30;99.90;;;;;;5072885;28;20306;-77
2023/06/16 00:47:36;;;;;;;7.03;6.30;;;12.20;99.90;;;;;;5073142;28;20215;-79
2023/06/16 00:50:05;;;;;;;7.63;5.93;;;12.10;99.90;;;;;;5073229;28;20265;-80
2023/06/16 00:52:37;;;;;;;6.50;5.60;;;12.10;99.90;;;;;;5082784;28;20266;-78
2023/06/16 00:55:08;;;;;;;8.77;5.50;;;12.10;99.90;;;;;;5077349;28;20243;-80
2023/06/16 00:57:38;;;;;;;8.33;5.70;;;12.00;99.90;;;;;;5072835;28;20275;-79
2023/06/16 01:00:11;;;;;;;8.23;6.07;;;12.00;99.90;;;;;;5072568;28;20207;-79
2023/06/16 01:02:39;;;;;;;8.73;5.60;;;12.00;99.90;;;;;;5072562;28;20269;-79
2023/06/16 01:05:09;;;;;;;6.57;5.53;;;12.00;99.90;;;;;;5072507;28;20314;-80
2023/06/16 01:07:43;;;;;;;8.20;6.00;;;12.00;99.90;;;;;;5072740;28;20211;-79
2023/06/16 01:10:18;;;;;;;7.17;5.77;;;11.90;99.90;;;;;;5072591;28;20643;-81
2023/06/16 01:12:57;;;;;;;7.67;6.00;;;11.90;99.90;;;;;;5072160;28;20238;-80
2023/06/16 01:15:28;;;;;;;7.30;6.10;;;11.90;99.90;;;;;;5072235;28;20819;-80
2023/06/16 01:17:59;;;;;;;8.80;6.47;;;11.90;99.90;;;;;;5082473;28;20237;-78
2023/06/16 01:20:38;;;;;;;7.27;6.57;;;11.80;99.90;;;;;;5092969;28;20214;-79
2023/06/16 01:23:20;;;;;;;8.93;6.47;;;11.80;99.90;;;;;;5090787;28;20260;-80
2023/06/16 01:25:53;;;;;;;7.37;6.60;;;11.70;99.90;;;;;;5072573;28;20239;-79
2023/06/16 01:28:25;;;;;;;7.17;6.47;;;11.70;99.90;;;;;;5072008;28;20219;-78
2023/06/16 01:30:54;;;;;;;7.87;6.80;;;11.60;99.90;;;;;;5072155;28;20214;-78
2023/06/16 01:33:25;;;;;;;7.23;6.47;;;11.60;99.90;;;;;;5071834;28;20229;-80
2023/06/16 01:35:54;;;;;;;9.10;6.33;;;11.60;99.90;;;;;;5072230;28;20217;-81
2023/06/16 01:38:24;;;;;;;8.37;6.47;;;11.60;99.90;;;;;;5072072;28;20253;-78
2023/06/16 01:40:56;;;;;;;9.07;6.90;;;11.60;99.90;;;;;;5071759;28;20257;-80
2023/06/16 01:43:24;;;;;;;8.13;6.50;;;11.50;99.90;;;;;;5072047;28;20191;-79
2023/06/16 01:45:53;;;;;;;7.40;6.47;;;11.50;99.90;;;;;;5071564;28;20755;-81
2023/06/16 01:48:22;;;;;;;6.30;5.70;;;11.40;99.90;;;;;;5069704;28;20219;-78
2023/06/16 01:50:51;;;;;;;9.17;6.67;;;11.40;99.90;;;;;;5070356;28;20215;-77
2023/06/16 01:53:20;;;;;;;8.60;6.37;;;11.40;99.90;;;;;;5069984;28;20600;-79
2023/06/16 01:55:49;;;;;;;8.40;6.60;;;11.40;99.90;;;;;;5070028;28;20199;-78
2023/06/16 01:58:20;;;;;;;7.03;6.17;;;11.50;99.90;;;;;;5069538;28;20207;-78
2023/06/16 02:00:55;;;;;;;8.77;6.63;;;11.40;99.90;;;;;;5070073;28;20211;-78
2023/06/16 02:03:29;;;;;;;8.63;6.67;;;11.40;99.90;;;;;;5070859;28;20211;-79
2023/06/16 02:06:03;;;;;;;8.70;7.20;;;11.40;99.90;;;;;;5071777;28;20223;-78
2023/06/16 02:08:33;;;;;;;7.77;6.67;;;11.40;99.90;;;;;;5071721;28;20231;-79
2023/06/16 02:11:02;;;;;;;9.50;7.10;;;11.40;99.90;;;;;;5072164;28;20262;-78
2023/06/16 02:13:32;;;;;;;9.97;7.20;;;11.40;99.90;;;;;;5071581;28;20219;-78
2023/06/16 02:16:00;;;;;;;9.00;7.00;;;11.40;99.90;;;;;;5082105;28;20207;-79
2023/06/16 02:18:32;;;;;;;9.23;7.20;;;11.50;99.90;;;;;;5093075;28;20207;-80
2023/06/16 02:21:01;;;;;;;8.20;7.13;;;11.50;99.90;;;;;;5093091;28;20633;-79
2023/06/16 02:23:29;;;;;;;8.97;6.80;;;11.50;99.90;;;;;;5088284;28;20640;-78
2023/06/16 02:25:57;;;;;;;7.67;6.87;;;11.50;99.90;;;;;;5072008;28;20231;-78
2023/06/16 02:28:25;;;;;;;10.47;6.80;;;11.60;99.90;;;;;;5072651;28;20211;-80
2023/06/16 02:30:55;;;;;;;7.73;7.00;;;11.60;99.90;;;;;;5072008;28;20208;-80
2023/06/16 02:33:23;;;;;;;8.13;6.93;;;11.60;99.90;;;;;;5071182;28;20211;-80
2023/06/16 02:35:51;;;;;;;7.50;6.67;;;11.60;99.90;;;;;;5071906;28;20199;-80
2023/06/16 02:38:19;;;;;;;7.43;6.40;;;11.70;99.90;;;;;;5071783;28;20208;-78
2023/06/16 02:40:47;;;;;;;8.87;7.10;;;11.70;99.90;;;;;;5074510;28;20203;-80
2023/06/16 02:43:16;;;;;;;8.83;7.00;;;11.70;99.90;;;;;;5091601;28;20257;-80
2023/06/16 02:45:44;;;;;;;8.27;6.57;;;11.70;99.90;;;;;;5091864;28;20572;-80
2023/06/16 02:48:13;;;;;;;8.47;6.77;;;11.70;99.90;;;;;;5091190;28;20214;-79
2023/06/16 02:50:41;;;;;;;8.03;6.37;;;11.70;99.90;;;;;;5071744;28;20212;-79
2023/06/16 02:53:10;;;;;;;7.60;6.87;;;11.70;99.90;;;;;;5071437;28;20211;-78
2023/06/16 02:55:38;;;;;;;9.07;6.53;;;11.70;99.90;;;;;;5071011;28;20739;-79
2023/06/16 02:58:06;;;;;;;8.03;6.87;;;11.80;99.90;;;;;;5070534;28;20247;-78
2023/06/16 03:00:34;;;;;;;9.23;6.70;;;11.70;99.90;;;;;;5073988;28;20216;-78
2023/06/16 03:03:02;;;;;;;9.03;7.00;;;11.80;99.90;;;;;;5075221;28;20212;-78
2023/06/16 03:05:33;;;;;;;7.97;6.77;;;11.70;99.90;;;;;;5075594;28;20735;-78
2023/06/16 03:08:01;;;;;;;7.70;6.90;;;11.60;99.90;;;;;;5074519;28;20234;-79
2023/06/16 03:10:30;;;;;;;7.17;6.47;;;11.60;99.90;;;;;;5075197;28;20229;-81
2023/06/16 03:12:58;;;;;;;7.73;6.77;;;11.60;99.90;;;;;;5074351;28;20682;-80
2023/06/16 03:15:27;;;;;;;8.57;7.67;;;11.50;99.90;;;;;;5087164;28;20612;-78
2023/06/16 03:17:55;;;;;;;8.93;7.17;;;11.50;99.90;;;;;;5095394;28;20209;-78
2023/06/16 03:20:24;;;;;;;8.27;7.23;;;11.40;99.90;;;;;;5094947;28;20635;-80
2023/06/16 03:22:53;;;;;;;8.77;7.13;;;11.40;99.90;;;;;;5081405;28;20627;-78
2023/06/16 03:25:21;;;;;;;10.03;7.40;;;11.40;99.90;;;;;;5074811;28;20215;-79
2023/06/16 03:27:49;;;;;;;11.10;7.20;;;11.30;99.90;;;;;;5075194;28;20262;-79
2023/06/16 03:30:18;;;;;;;8.00;7.20;;;11.20;99.90;;;;;;5075159;28;20243;-79
2023/06/16 03:32:47;;;;;;;11.20;8.10;;;11.20;99.90;;;;;;5074825;28;20674;-80
2023/06/16 03:35:17;;;;;;;8.67;7.73;;;11.20;99.90;;;;;;5075509;28;20235;-81
2023/06/16 03:37:45;;;;;;;8.40;7.60;;;11.10;99.90;;;;;;5075898;28;20203;-80
2023/06/16 03:40:17;;;;;;;9.57;7.93;;;11.10;99.90;;;;;;5075557;28;20203;-80
2023/06/16 03:42:45;;;;;;;9.03;8.17;;;11.10;99.90;;;;;;5075994;28;20531;-80
2023/06/16 03:45:13;;;;;;;9.13;8.23;;;11.00;99.90;;;;;;5075215;28;20298;-80
2023/06/16 03:47:41;;;;;;;8.60;7.70;;;11.00;99.90;;;;;;5073896;28;20776;-79
2023/06/16 03:50:10;;;;;;;9.37;8.07;;;11.10;99.90;;;;;;5074013;28;20214;-80
2023/06/16 03:52:38;;;;;;;10.23;8.10;;;11.10;99.90;;;;;;5073852;28;20215;-79
2023/06/16 03:55:07;;;;;;;11.20;7.90;;;11.10;99.90;;;;;;5082337;28;20235;-80
2023/06/16 03:57:38;;;;;;;9.17;8.07;;;11.10;99.90;;;;;;5073961;28;20650;-80
2023/06/16 04:00:09;;;;;;;10.10;8.50;;;11.10;99.90;;;;;;5074144;28;20216;-80
2023/06/16 04:02:40;;;;;;;10.20;7.77;;;11.10;99.90;;;;;;5073976;28;20261;-78
2023/06/16 04:05:10;;;;;;;11.57;8.60;;;11.20;99.90;;;;;;5078741;28;20637;-79
2023/06/16 04:07:38;;;;;;;10.23;8.70;;;11.20;99.90;;;;;;5093907;28;20688;-78
2023/06/16 04:10:07;;;;;;;9.40;8.33;;;11.30;99.90;;;;;;5093808;28;20266;-80
2023/06/16 04:12:35;;;;;;;11.80;8.83;;;11.30;99.90;;;;;;5092784;28;20229;-80
2023/06/16 04:15:05;;;;;;;10.50;9.20;;;11.40;99.90;;;;;;5073871;28;20207;-79
2023/06/16 04:17:34;;;;;;;9.30;8.40;;;11.40;99.90;;;;;;5074323;28;20204;-79
2023/06/16 04:20:09;;;;;;;9.97;8.97;;;11.40;99.90;;;;;;5073768;28;20744;-78
2023/06/16 04:22:37;;;;;;;10.27;9.00;;;11.40;99.90;;;;;;5073337;28;20264;-80
2023/06/16 04:25:08;;;;;;;11.17;9.97;;;11.50;99.90;;;;;;5073606;28;20673;-79
2023/06/16 04:27:37;;;;;;;10.30;9.30;;;11.60;99.90;;;;;;5073278;28;20231;-80
2023/06/16 04:30:08;;;;;;;12.03;9.63;;;11.70;99.90;;;;;;5078273;28;20207;-80
2023/06/16 04:32:36;;;;;;;11.83;9.30;;;11.70;99.90;;;;;;5085532;28;20293;-79
2023/06/16 04:35:06;;;;;;;11.60;8.73;;;11.80;99.90;;;;;;5087460;28;20204;-79
2023/06/16 04:37:34;;;;;;;11.53;9.77;;;11.90;99.90;;;;;;5081262;28;20218;-81
2023/06/16 04:40:05;;;;;;;10.30;9.30;;;12.00;99.90;;;;;;5073104;28;20211;-79
2023/06/16 04:42:34;;;;;;;11.03;9.13;;;12.00;99.90;;;;;;5073091;28;20220;-79
2023/06/16 04:45:02;;;;;;;10.83;9.70;;;12.10;99.90;;;;;;5090463;28;20207;-78
2023/06/16 04:47:32;;;;;;;11.67;9.00;;;12.20;99.90;;;;;;5084396;28;20237;-79
2023/06/16 04:50:01;;;;;;;10.47;8.97;;;12.20;99.90;;;;;;5073367;28;20535;-81
2023/06/16 04:52:30;;;;;;;10.63;8.93;;;12.30;99.90;;;;;;5072645;28;20632;-78
2023/06/16 04:54:58;;;;;;;10.50;9.13;;;12.40;99.90;;;;;;5073099;28;20299;-78
2023/06/16 04:57:26;;;;;;;11.07;9.30;;;12.50;99.90;;;;;;5072769;28;20208;-79
2023/06/16 04:59:54;;;;;;;12.70;9.40;;;12.60;99.90;;;;;;5073077;28;20207;-79
2023/06/16 05:02:22;;;;;;;10.17;8.90;;;12.60;99.90;;;;;;5072231;28;20203;-77
2023/06/16 05:04:52;;;;;;;12.13;9.00;;;12.70;99.90;;;;;;5072797;28;20218;-78
2023/06/16 05:07:20;;;;;;;10.00;9.00;;;12.70;99.90;;;;;;5093350;28;20233;-80
2023/06/16 05:09:48;;;;;;;10.80;8.97;;;12.80;99.90;;;;;;5079562;28;20689;-80
2023/06/16 05:12:16;;;;;;;10.50;8.77;;;12.90;99.90;;;;;;5082095;28;20255;-79
2023/06/16 05:14:45;;;;;;;9.67;8.13;;;13.00;99.90;;;;;;5092989;28;20215;-81
2023/06/16 05:17:13;;;;;;;8.37;6.87;;;13.10;99.90;;;;;;5085424;28;20307;-78
2023/06/16 05:19:41;;;;;;;11.37;8.73;;;13.20;99.90;;;;;;5073957;28;20211;-79
2023/06/16 05:22:11;;;;;;;9.97;7.90;;;13.30;99.90;;;;;;5071607;28;20215;-80
2023/06/16 05:24:39;;;;;;;9.43;8.50;;;13.40;99.90;;;;;;5072367;28;20626;-79
2023/06/16 05:27:07;;;;;;;9.70;8.40;;;13.50;99.90;;;;;;5077929;28;20223;-80
2023/06/16 05:29:35;;;;;;;9.73;8.17;;;13.60;99.90;;;;;;5073181;28;20553;-80
2023/06/16 05:32:04;;;;;;;8.30;7.43;;;13.70;99.90;;;;;;5077809;28;20231;-78
2023/06/16 05:34:32;;;;;;;10.30;7.20;;;13.90;99.90;;;;;;5082647;28;20545;-78
2023/06/16 05:37:00;;;;;;;8.43;6.97;;;14.00;99.90;;;;;;5082389;28;20215;-80
2023/06/16 05:39:30;;;;;;;8.63;7.30;;;14.20;99.90;;;;;;5081251;28;20290;-79
2023/06/16 05:41:58;;;;;;;10.37;7.90;;;14.40;99.90;;;;;;5084567;28;20210;-78
2023/06/16 05:44:26;;;;;;;12.00;7.80;;;14.50;99.90;;;;;;5086085;28;20203;-79
2023/06/16 05:46:54;;;;;;;8.27;6.60;;;14.70;99.90;;;;;;5091085;28;20252;-77
2023/06/16 05:49:22;;;;;;;8.17;6.70;;;15.00;99.90;;;;;;5087711;28;20211;-77
2023/06/16 05:51:51;;;;;;;7.53;6.37;;;15.40;99.90;;;;;;5088086;28;20231;-78
2023/06/16 05:54:19;;;;;;;8.60;6.63;;;16.10;99.90;;;;;;5090082;28;20235;-76
2023/06/16 05:56:49;;;;;;;7.83;6.30;;;17.30;99.90;;;;;;5088056;28;20600;-77
2023/06/16 05:59:18;;;;;;;8.10;6.67;;;18.70;99.90;;;;;;5089229;28;20210;-79
2023/06/16 06:01:46;;;;;;;8.20;5.53;;;19.90;99.50;;;;;;5091301;28;20211;-78
2023/06/16 06:04:14;;;;;;;7.83;4.97;;;21.00;98.00;;;;;;5091950;28;20214;-78
2023/06/16 06:06:43;;;;;;;8.87;5.50;;;21.60;94.60;;;;;;5091681;28;20662;-78
2023/06/16 06:09:11;;;;;;;8.17;5.20;;;22.00;91.60;;;;;;5082440;28;20231;-79
2023/06/16 06:11:40;;;;;;;8.40;5.20;;;22.10;89.30;;;;;;5091653;28;20570;-78
2023/06/16 06:14:11;;;;;;;9.70;4.80;;;22.20;89.20;;;;;;5090419;28;20260;-79
2023/06/16 06:16:39;;;;;;;7.10;5.40;;;23.00;84.40;;;;;;5079144;28;20597;-77
2023/06/16 06:19:07;;;;;;;9.13;5.13;;;23.30;80.50;;;;;;5070004;28;20200;-79
2023/06/16 06:21:36;;;;;;;7.27;5.30;;;23.60;77.50;;;;;;5071125;28;20553;-77
2023/06/16 06:24:04;;;;;;;6.40;4.57;;;23.80;75.80;;;;;;5071423;28;20215;-77
2023/06/16 06:26:33;;;;;;;7.33;5.07;;;24.40;73.80;;;;;;5083137;28;20210;-78
2023/06/16 06:29:01;;;;;;;8.40;4.97;;;24.50;72.50;;;;;;5091348;28;20246;-77
2023/06/16 06:31:33;;;;;;;11.23;4.90;;;24.60;70.00;;;;;;5085027;28;20535;-78
2023/06/16 06:34:01;;;;;;;6.28;4.70;;;25.60;67.20;;;;;;5090907;28;20567;-78
2023/06/16 06:36:29;;;;;;;7.85;4.30;;;25.60;63.70;;;;;;5095836;28;20237;-78
2023/06/16 06:38:58;;;;;;;6.55;3.97;;;26.00;60.60;;;;;;5095773;28;20611;-77
2023/06/16 06:41:26;;;;;;;7.32;3.78;;;26.20;57.70;;;;;;5081254;28;20293;-78
2023/06/16 06:43:55;;;;;;;6.82;4.03;;;26.60;56.70;;;;;;5075410;28;20589;-77
2023/06/16 06:46:23;;;;;;;8.23;4.30;;;26.90;55.80;;;;;;5075353;28;20355;-78
2023/06/16 06:48:53;;;;;;;5.40;3.85;;;27.50;53.00;;;;;;5075415;28;20281;-79
2023/06/16 06:51:21;;;;;;;5.25;4.13;;;27.90;50.70;;;;;;5078244;28;20280;-79
2023/06/16 06:53:49;;;;;;;6.75;3.80;;;27.40;51.30;;;;;;5094124;28;20657;-77
2023/06/16 06:56:17;;;;;;;5.30;4.05;;;27.40;52.00;;;;;;5094696;28;20241;-77
2023/06/16 06:58:45;;;;;;;5.15;4.07;;;27.50;49.50;;;;;;5088825;28;20549;-77
2023/06/16 07:01:14;;;;;;;6.85;3.92;;;27.40;51.00;;;;;;5086126;28;20207;-77
2023/06/16 07:03:42;;;;;;;6.82;3.55;;;28.30;47.30;;;;;;5094644;28;20211;-75
2023/06/16 07:06:12;;;;;;;5.70;3.78;;;28.40;47.80;;;;;;5094909;28;20704;-79
2023/06/16 07:08:41;;;;;;;9.68;3.70;;;28.90;45.00;;;;;;5077482;28;20241;-78
2023/06/16 07:11:09;;;;;;;4.25;3.75;;;28.90;44.30;;;;;;5095305;28;20211;-77
2023/06/16 07:13:37;;;;;;;6.30;3.85;;;28.70;44.70;;;;;;5094867;28;20217;-77
2023/06/16 07:16:05;;;;;;;4.18;3.50;;;28.50;42.10;;;;;;5094014;28;20203;-77
2023/06/16 07:18:34;;;;;;;5.15;3.30;;;28.50;43.60;;;;;;5094866;28;20584;-77
2023/06/16 07:21:02;;;;;;;4.53;3.35;;;28.90;41.00;;;;;;5095122;28;20207;-79
2023/06/16 07:23:32;;;;;;;5.93;3.80;;;28.80;43.20;;;;;;5081751;28;20207;-78
2023/06/16 07:26:00;;;;;;;4.78;3.53;;;28.30;42.50;;;;;;5074782;28;20295;-78
2023/06/16 07:28:29;;;;;;;6.05;3.58;;;29.10;42.80;;;;;;5075390;28;20709;-78
2023/06/16 07:30:57;;;;;;;3.75;3.38;;;29.30;40.50;;;;;;5086834;28;20323;-78
2023/06/16 07:33:26;;;;;;;9.20;4.40;;;29.60;39.90;;;;;;5093856;28;20202;-78
2023/06/16 07:35:54;;;;;;;8.30;4.07;;;28.50;39.80;;;;;;5093451;28;20203;-77
2023/06/16 07:38:22;;;;;;;4.53;3.70;;;28.90;40.70;;;;;;5093254;28;20221;-78
2023/06/16 07:40:52;;;;;;;7.13;4.00;;;29.50;40.60;;;;;;5091354;28;20203;-79
2023/06/16 07:43:21;;;;;;;5.15;3.63;;;29.30;41.40;;;;;;5095386;28;20225;-77
2023/06/16 07:45:50;;;;;;;6.90;4.07;;;29.70;40.70;;;;;;5093581;28;20263;-79
2023/06/16 07:48:19;;;;;;;4.95;3.83;;;30.50;40.20;;;;;;5093316;28;20645;-79
2023/06/16 07:50:47;;;;;;;5.07;3.67;;;30.30;38.50;;;;;;5104333;28;20227;-78
2023/06/16 07:53:16;;;;;;;6.78;3.72;;;30.10;39.00;;;;;;5102369;28;20210;-77
2023/06/16 07:55:44;;;;;;;7.47;4.03;;;30.10;38.10;;;;;;5094185;28;20203;-79
2023/06/16 07:58:13;;;;;;;6.30;3.92;;;30.70;38.30;;;;;;5092237;28;20207;-82
2023/06/16 08:00:42;;;;;;;9.50;4.05;;;30.80;37.50;;;;;;5094365;28;20207;-80
2023/06/16 08:03:10;;;;;;;9.65;4.25;;;31.20;35.80;;;;;;5094886;28;20218;-78
2023/06/16 08:05:39;;;;;;;4.60;4.00;;;30.70;35.10;;;;;;5094248;28;20272;-78
2023/06/16 08:08:07;;;;;;;8.02;4.13;;;30.40;36.80;;;;;;5090265;28;20217;-80
2023/06/16 08:10:35;;;;;;;5.47;3.70;;;29.10;38.20;;;;;;5086828;28;20264;-77
2023/06/16 08:13:03;;;;;;;5.40;3.63;;;31.50;33.60;;;;;;5094171;28;20265;-79
2023/06/16 08:15:33;;;;;;;5.68;4.30;;;31.80;33.20;;;;;;5084013;28;20665;-83
2023/06/16 08:18:01;;;;;;;5.95;4.15;;;31.10;33.50;;;;;;5079728;28;20254;-78
2023/06/16 08:20:30;;;;;;;4.00;3.60;;;31.50;34.00;;;;;;5081254;28;20208;-78
2023/06/16 08:22:58;;;;;;;5.03;3.50;;;31.20;34.10;;;;;;5073546;28;20211;-80
2023/06/16 08:25:27;;;;;;;4.90;3.33;;;31.20;34.00;;;;;;5076879;28;20207;-77
2023/06/16 08:27:55;;;;;;;4.45;3.40;;;31.60;31.80;;;;;;5086173;28;20226;-78
2023/06/16 08:30:24;;;;;;;7.80;3.58;;;31.00;32.30;;;;;;5092277;28;20273;-78
2023/06/16 08:32:53;;;;;;;6.05;3.40;;;31.10;31.30;;;;;;5093059;28;20229;-78
2023/06/16 08:35:22;;;;;;;6.63;3.60;;;31.30;31.80;;;;;;5087769;28;20250;-78
2023/06/16 08:37:50;;;;;;;4.70;3.38;;;30.50;32.30;;;;;;5087988;28;20234;-78
2023/06/16 08:40:18;;;;;;;3.67;3.10;;;31.70;31.40;;;;;;5091917;28;20221;-77
2023/06/16 08:42:48;;;;;;;7.13;3.25;;;31.00;30.50;;;;;;5092832;28;20570;-78
2023/06/16 08:45:18;;;;;;;10.40;4.00;;;31.80;31.80;;;;;;5079131;28;20215;-80
2023/06/16 08:47:46;;;;;;;9.45;3.45;;;32.00;29.20;;;;;;5085221;28;20214;-78
2023/06/16 08:50:22;;;;;;;4.43;3.35;;;31.80;28.90;;;;;;5093203;28;20699;-78
2023/06/16 08:52:53;;;;;;;4.80;3.67;;;31.40;29.70;;;;;;5092228;28;20209;-80
2023/06/16 08:55:23;;;;;;;5.82;3.42;;;31.40;29.40;;;;;;5072796;28;20638;-79
2023/06/16 08:57:53;;;;;;;3.92;3.33;;;30.90;30.40;;;;;;5072456;28;20212;-82
2023/06/16 09:00:21;;;;;;;4.50;3.50;;;30.20;32.60;;;;;;5073961;28;20204;-80
2023/06/16 09:02:55;;;;;;;4.38;3.22;;;30.60;29.60;;;;;;5089692;28;20264;-78
2023/06/16 09:05:27;;;;;;;5.65;3.35;;;30.70;30.80;;;;;;5093256;28;20191;-78
2023/06/16 09:07:56;;;;;;;3.58;3.20;;;31.60;29.50;;;;;;5072831;28;20207;-79
2023/06/16 09:10:24;;;;;;;6.72;3.33;;;32.10;28.20;;;;;;5073232;28;20277;-77
2023/06/16 09:12:53;;;;;;;8.00;3.35;;;31.50;28.40;;;;;;5072676;28;20207;-79
2023/06/16 09:15:22;;;;;;;3.83;3.00;;;31.30;28.60;;;;;;5072795;28;20576;-77
2023/06/16 09:17:51;;;;;;;5.80;3.33;;;30.60;30.00;;;;;;5077667;28;20243;-78
2023/06/16 09:20:22;;;;;;;4.10;3.17;;;30.90;30.00;;;;;;5076257;28;20211;-78
2023/06/16 09:22:59;;;;;;;10.77;4.43;;;32.30;28.00;;;;;;5072569;28;20211;-80
2023/06/16 09:25:27;;;;;;;8.00;3.53;;;32.10;29.20;;;;;;5078385;28;20965;-78
2023/06/16 09:27:56;;;;;;;5.55;3.13;;;31.50;28.30;;;;;;5082156;28;20287;-78
2023/06/16 09:30:33;;;;;;;5.35;2.92;;;31.30;27.90;;;;;;5085501;28;20230;-78
2023/06/16 09:33:02;;;;;;;5.88;3.42;;;31.10;26.20;;;;;;5092499;28;20256;-78
2023/06/16 09:35:32;;;;;;;5.03;3.17;;;29.40;28.30;;;;;;5082051;28;20208;-80
2023/06/16 09:38:03;;;;;;;5.93;3.35;;;27.90;31.50;;;;;;5073094;28;20207;-81
2023/06/16 09:40:34;;;;;;;11.32;4.10;;;26.60;34.20;;;;;;5072864;28;20241;-82
2023/06/16 09:43:07;;;;;;;9.40;4.10;;;25.60;40.80;;;;;;5084229;28;20214;-82
2023/06/16 09:45:35;;;;;;;7.63;3.83;;;24.40;40.00;;;;;;5080716;28;20553;-82
2023/06/16 09:48:05;;;;;;;8.40;4.30;;;23.30;37.20;;;;;;5084401;28;20211;-78
2023/06/16 09:50:36;;;;;;;5.13;3.60;;;22.90;39.00;;;;;;5092995;28;20233;-77
2023/06/16 09:53:09;;;;;;;7.17;3.93;;;24.00;41.00;;;;;;5093129;28;20272;-77
2023/06/16 09:55:39;;;;;;;4.87;3.40;;;25.90;38.40;;;;;;5074637;28;20257;-78
2023/06/16 09:58:07;;;;;;;6.68;4.00;;;27.20;35.80;;;;;;5073625;28;20238;-78
2023/06/16 10:00:36;;;;;;;7.60;3.78;;;28.00;33.30;;;;;;5091583;28;20726;-80
2023/06/16 10:03:10;;;;;;;7.80;3.95;;;28.30;34.50;;;;;;5086170;28;20221;-79
2023/06/16 10:05:41;;;;;;;5.78;3.83;;;28.80;33.00;;;;;;5089583;28;20232;-81
2023/06/16 10:08:13;;;;;;;6.38;3.60;;;28.30;34.30;;;;;;5090747;28;20241;-85
2023/06/16 10:10:44;;;;;;;8.88;4.07;;;28.40;32.90;;;;;;5088636;28;20227;-81
2023/06/16 10:13:14;;;;;;;5.85;3.80;;;28.60;32.70;;;;;;5090851;28;20206;-83
2023/06/16 10:15:43;;;;;;;7.30;4.10;;;28.10;34.90;;;;;;5091188;28;20199;-82
2023/06/16 10:18:15;;;;;;;5.50;3.77;;;26.30;35.40;;;;;;5088164;28;20227;-77
2023/06/16 10:20:46;;;;;;;5.30;3.50;;;25.20;38.80;;;;;;5091542;28;20207;-82
2023/06/16 10:23:16;;;;;;;6.37;4.00;;;24.00;41.60;;;;;;5088713;28;20195;-83
2023/06/16 10:25:45;;;;;;;5.30;3.97;;;23.30;42.80;;;;;;5091857;28;20661;-79
2023/06/16 10:28:14;;;;;;;7.63;4.30;;;22.90;47.00;;;;;;5086935;28;20198;-80
2023/06/16 10:30:44;;;;;;;6.43;4.20;;;22.50;47.20;;;;;;5091311;28;20222;-79
2023/06/16 10:33:18;;;;;;;6.27;4.23;;;22.20;48.00;;;;;;5078032;28;20226;-81
2023/06/16 10:35:53;;;;;;;5.83;4.03;;;22.20;49.50;;;;;;5091428;28;20218;-80
2023/06/16 10:38:43;;;;;;;7.13;3.90;;;22.40;50.90;;;;;;5089654;28;20215;-79
2023/06/16 10:41:17;;;;;;;4.97;4.07;;;22.60;52.30;;;;;;5090573;28;20531;-78
2023/06/16 10:43:45;;;;;;;6.10;4.20;;;23.10;50.30;;;;;;5090381;28;20210;-80
2023/06/16 10:46:14;;;;;;;9.10;4.37;;;23.30;48.40;;;;;;5080133;28;20233;-79
2023/06/16 10:49:10;;;;;;;6.20;4.03;;;23.60;47.70;;;;;;5082744;28;20311;-78
2023/06/16 10:51:48;;;;;;;6.30;4.20;;;23.40;48.20;;;;;;5070769;28;20302;-77
2023/06/16 10:54:43;;;;;;;4.63;3.90;;;23.50;46.30;;;;;;5070438;28;20214;-80
2023/06/16 10:57:12;;;;;;;5.77;3.87;;;23.40;45.40;;;;;;5070729;28;20265;-77
2023/06/16 10:59:59;;;;;;;4.30;3.50;;;23.40;46.20;;;;;;5074561;28;20215;-77
2023/06/16 11:02:30;;;;;;;5.13;3.90;;;23.60;45.40;;;;;;5090489;28;20290;-78
2023/06/16 11:05:22;;;;;;;5.73;3.90;;;23.10;49.30;;;;;;5090059;28;20214;-78
2023/06/16 11:08:13;;;;;;;5.87;3.67;;;22.70;51.20;;;;;;5065122;28;20554;-76
2023/06/16 11:10:54;;;;;;;7.70;3.53;;;22.40;49.40;;;;;;5072844;28;20231;-77
2023/06/16 11:13:24;;;;;;;8.60;3.90;;;22.00;46.40;;;;;;5091492;28;20242;-76
2023/06/16 11:15:54;;;;;;;8.77;4.00;;;21.80;45.50;;;;;;5090240;28;20610;-80
2023/06/16 11:18:25;;;;;;;7.87;3.90;;;22.00;46.70;;;;;;5091053;28;20203;-76
2023/06/16 11:20:57;;;;;;;5.63;3.60;;;22.00;45.10;;;;;;5090660;28;20203;-77
2023/06/16 11:23:25;;;;;;;7.57;3.73;;;22.60;45.20;;;;;;5100560;28;20755;-75
2023/06/16 11:26:03;;;;;;;7.57;3.50;;;23.40;41.60;;;;;;5100261;28;20242;-77
2023/06/16 11:28:33;;;;;;;7.60;3.73;;;24.30;41.70;;;;;;5098633;28;20187;-81
2023/06/16 11:31:02;;;;;;;9.13;3.70;;;25.40;42.70;;;;;;5098223;28;20230;-78
2023/06/16 11:33:33;;;;;;;7.10;3.80;;;26.30;36.80;;;;;;5079607;28;20294;-77
2023/06/16 11:36:16;;;;;;;9.83;3.83;;;26.80;37.00;;;;;;5098396;28;20233;-78
2023/06/16 11:38:45;;;;;;;6.70;3.10;;;26.10;36.10;;;;;;5100150;28;20208;-80
2023/06/16 11:41:20;;;;;;;8.40;3.80;;;25.20;37.70;;;;;;5090089;28;20203;-80
2023/06/16 11:43:51;;;;;;;6.23;3.60;;;24.30;34.60;;;;;;5089339;28;20605;-78
2023/06/16 11:46:21;;;;;;;5.87;3.23;;;24.40;37.00;;;;;;5097117;28;20660;-78
2023/06/16 11:48:51;;;;;;;6.73;3.57;;;25.00;35.60;;;;;;5096541;28;20479;-79
2023/06/16 11:51:23;;;;;;;8.50;4.00;;;25.40;35.30;;;;;;5098259;28;20761;-79
2023/06/16 11:53:51;;;;;;;10.07;4.07;;;26.10;36.80;;;;;;5101797;28;20229;-77
2023/06/16 11:56:24;;;;;;;5.83;3.70;;;26.10;30.20;;;;;;5094042;28;20253;-77
2023/06/16 11:58:52;;;;;;;8.13;4.30;;;26.30;29.50;;;;;;5086559;28;20298;-76
2023/06/16 12:01:24;;;;;;;5.93;3.70;;;26.10;29.50;;;;;;5077500;28;20688;-80
2023/06/16 12:03:53;;;;;;;4.67;3.87;;;26.10;30.30;;;;;;5097584;28;20202;-78
2023/06/16 12:06:34;;;;;;;9.43;3.63;;;26.30;31.20;;;;;;5084701;28;20188;-79
2023/06/16 12:09:04;;;;;;;5.17;3.63;;;26.20;32.20;;;;;;5102139;28;20223;-79
2023/06/16 12:11:36;;;;;;;6.47;3.77;;;26.30;34.60;;;;;;5104574;28;20222;-78
2023/06/16 12:14:04;;;;;;;6.87;3.97;;;25.80;33.20;;;;;;5091671;28;20231;-78
2023/06/16 12:16:32;;;;;;;10.53;3.77;;;25.00;34.60;;;;;;5084415;28;20597;-77
2023/06/16 12:19:00;;;;;;;6.90;3.77;;;24.70;35.90;;;;;;5082108;28;20215;-78
2023/06/16 12:21:30;;;;;;;8.17;3.90;;;25.10;35.80;;;;;;5086158;28;20218;-77
2023/06/16 12:23:59;;;;;;;8.97;3.80;;;25.60;34.40;;;;;;5081302;28;20204;-77
2023/06/16 12:26:34;;;;;;;7.53;4.43;;;25.40;34.90;;;;;;5097491;28;20203;-76
2023/06/16 12:29:08;;;;;;;7.67;4.30;;;25.30;33.80;;;;;;5096887;28;20225;-77
2023/06/16 12:31:36;;;;;;;6.33;4.00;;;24.50;32.50;;;;;;5094349;28;20218;-77
2023/06/16 12:34:05;;;;;;;8.07;4.17;;;24.20;35.50;;;;;;5081281;28;20208;-80
2023/06/16 12:36:41;;;;;;;7.47;4.17;;;24.20;35.80;;;;;;5093382;28;20368;-77
2023/06/16 12:39:17;;;;;;;9.33;4.50;;;24.10;33.60;;;;;;5093193;28;20244;-78
2023/06/16 12:42:01;;;;;;;8.47;4.70;;;24.00;34.80;;;;;;5089645;28;20338;-78
2023/06/16 12:44:43;;;;;;;7.83;4.80;;;24.60;34.50;;;;;;5092960;28;20210;-79
2023/06/16 12:47:11;;;;;;;5.83;4.73;;;24.60;32.40;;;;;;5090093;28;20275;-78
2023/06/16 12:49:40;;;;;;;7.13;4.87;;;24.40;30.00;;;;;;5091766;28;20225;-78
2023/06/16 12:52:09;;;;;;;6.43;4.80;;;24.60;33.20;;;;;;5085822;28;20342;-77
2023/06/16 12:54:38;;;;;;;8.47;4.90;;;24.60;33.20;;;;;;5086522;28;20218;-80
2023/06/16 12:57:08;;;;;;;7.33;4.97;;;24.00;32.70;;;;;;5090077;28;20644;-78
2023/06/16 12:59:37;;;;;;;7.40;4.63;;;23.60;33.40;;;;;;5095307;28;20211;-76